Terminal Aerodrome Forecast
Issued by NWS Bismarck, ND

Home | Current Version | Previous Version | Graphics & Text | Print | Product List | Glossary On
Versions: 1 2 3 4 5 6 7 8 9 10 11 12 13 14 15 16 17 18
000
FTUS43 KBIS 250400 AAA
TAFBIS
TAF AMD
KBIS 250404Z 2504/2524 28005KT P6SM SCT090
     FM250500 16004KT P6SM BKN025
     FM251600 16009KT 4SM -SN OVC020
     FM251800 16010KT 1SM -SN OVC007
      TEMPO 2519/2522 1/2SM SN OVC005
     FM252300 27005KT 3SM -SN OVC009=

USA.gov is the U.S. government's official web portal to all federal, state and local government web resources and services.